RKSW METAR and TAF | Updated Today

RKSW METAR

Suwon Airport

Observation time: 6:12 hr. ago

RKSW 061325Z 32003KT 9999 FEW050 BKN160 16/13 A3010 RMK CIG160

Need help? Read our tutorial on how to read METARs or read the parsed version below.

Suwon Airport (RKSW) METAR

  • Weather conditions on Thu, 06 Oct 2022 13:25:00 +0000 (6:12 hr. ago):
  • Present conditions: Dry
  • Clouds: A few at 1524 meters; broken sky at 4877 meters
  • Visibility: Greater than 10 km
  • Wind: 320 degrees at 3 knots
  • Temperature: 16 celsius
  • Dew point: 13 celsius
  • Pressure: 30.1 millibars
  • Remarks: CIG160


Useful to know...